createdAt,value
2018-06-19T00:02:22.770Z,100796.20
2018-06-19T00:04:50.935Z,100797.01
2018-06-19T00:07:19.119Z,100790.19
2018-06-19T00:09:47.290Z,100790.12
2018-06-19T00:12:15.476Z,100786.46
2018-06-19T00:14:43.644Z,100784.03
2018-06-19T00:17:11.835Z,100781.84
2018-06-19T00:19:44.866Z,100784.19
2018-06-19T00:22:13.081Z,100791.50
2018-06-19T00:24:41.258Z,100791.22
2018-06-19T00:27:09.476Z,100789.21
2018-06-19T00:29:37.651Z,100786.72
2018-06-19T00:32:05.855Z,100786.95
2018-06-19T00:34:34.055Z,100793.64
2018-06-19T00:37:02.219Z,100795.25
2018-06-19T00:39:30.390Z,100795.25
2018-06-19T00:41:58.567Z,100790.63
2018-06-19T00:44:26.742Z,100782.70
2018-06-19T00:46:55.556Z,100783.94
2018-06-19T00:49:23.803Z,100780.78
2018-06-19T00:51:51.982Z,100785.05
2018-06-19T00:54:20.162Z,100777.17
2018-06-19T00:56:54.571Z,100771.87
2018-06-19T00:59:22.941Z,100780.08
2018-06-19T01:01:51.563Z,100783.14
2018-06-19T01:04:19.762Z,100770.09
2018-06-19T01:06:47.949Z,100779.35
2018-06-19T01:09:16.121Z,100784.88
2018-06-19T01:11:44.307Z,100784.18
2018-06-19T01:14:12.467Z,100783.73
2018-06-19T01:16:40.639Z,100787.65
2018-06-19T01:19:08.818Z,100792.17
2018-06-19T01:21:36.991Z,100792.69
2018-06-19T01:24:05.174Z,100791.17
2018-06-19T01:26:33.358Z,100791.37
2018-06-19T01:29:01.526Z,100792.77
2018-06-19T01:31:29.712Z,100799.87
2018-06-19T01:33:57.895Z,100791.19
2018-06-19T01:36:26.055Z,100787.75
2018-06-19T01:38:54.238Z,100780.98
2018-06-19T01:41:22.423Z,100786.59
2018-06-19T01:43:50.670Z,100794.26
2018-06-19T01:46:18.842Z,100796.08
2018-06-19T01:48:47.019Z,100793.71
2018-06-19T01:51:15.310Z,100794.91
2018-06-19T01:53:43.478Z,100802.41
2018-06-19T01:56:11.663Z,100794.03
2018-06-19T01:58:39.847Z,100793.61
2018-06-19T02:01:08.183Z,100798.63
2018-06-19T02:03:36.375Z,100792.38
2018-06-19T02:06:04.830Z,100791.91
2018-06-19T02:08:33.007Z,100789.34
2018-06-19T02:11:01.235Z,100794.67
2018-06-19T02:13:29.390Z,100791.38
2018-06-19T02:15:57.558Z,100800.75
2018-06-19T02:18:25.753Z,100792.31
2018-06-19T02:20:53.915Z,100798.39
2018-06-19T02:23:22.087Z,100796.17
2018-06-19T02:25:50.280Z,100803.58
2018-06-19T02:28:18.462Z,100805.17
2018-06-19T02:30:46.662Z,100803.58
2018-06-19T02:33:14.847Z,100800.53
2018-06-19T02:35:43.014Z,100805.17
2018-06-19T02:38:11.183Z,100810.59
2018-06-19T02:40:39.415Z,100809.91
2018-06-19T02:43:07.583Z,100811.36
2018-06-19T02:45:35.759Z,100818.89
2018-06-19T02:48:03.950Z,100821.15
2018-06-19T02:50:32.124Z,100824.31
2018-06-19T02:53:00.299Z,100818.48
2018-06-19T02:55:28.465Z,100817.77
2018-06-19T02:57:56.643Z,100828.95
2018-06-19T03:00:24.848Z,100832.63
2018-06-19T03:02:53.186Z,100839.31
2018-06-19T03:05:21.971Z,100839.41
2018-06-19T03:07:50.276Z,100840.14
2018-06-19T03:10:18.475Z,100841.78
2018-06-19T03:12:46.655Z,100851.20
2018-06-19T03:15:14.835Z,100853.70
2018-06-19T03:17:43.250Z,100854.10
2018-06-19T03:20:11.534Z,100851.77
2018-06-19T03:22:39.712Z,100853.63
2018-06-19T03:25:07.918Z,100846.31
2018-06-19T03:27:36.078Z,100845.25
2018-06-19T03:30:04.302Z,100845.80
2018-06-19T03:32:32.479Z,100846.21
2018-06-19T03:35:00.647Z,100853.13
2018-06-19T03:37:28.839Z,100846.33
2018-06-19T03:39:57.015Z,100854.59
2018-06-19T03:42:25.180Z,100851.13
2018-06-19T03:44:53.358Z,100849.12
2018-06-19T03:47:21.527Z,100848.07
2018-06-19T03:49:49.692Z,100856.03
2018-06-19T03:52:17.871Z,100860.68
2018-06-19T03:54:46.035Z,100861.00
2018-06-19T03:57:14.199Z,100864.77
2018-06-19T03:59:42.382Z,100860.56
2018-06-19T04:02:10.558Z,100863.58
2018-06-19T04:04:38.739Z,100865.93
2018-06-19T04:07:06.947Z,100873.41
2018-06-19T04:09:35.122Z,100873.18
2018-06-19T04:12:03.296Z,100881.30
2018-06-19T04:14:31.476Z,100879.30
2018-06-19T04:16:59.642Z,100878.59
2018-06-19T04:19:27.823Z,100888.19
2018-06-19T04:21:56.207Z,100886.22
2018-06-19T04:24:24.504Z,100890.78
2018-06-19T04:26:52.663Z,100894.82
2018-06-19T04:29:20.862Z,100891.48
2018-06-19T04:31:49.103Z,100897.20
2018-06-19T04:34:17.332Z,100888.91
2018-06-19T04:36:45.519Z,100896.17
2018-06-19T04:39:13.726Z,100890.78
2018-06-19T04:41:42.402Z,100890.48
2018-06-19T04:44:10.601Z,100898.87
2018-06-19T04:46:38.958Z,100903.17
2018-06-19T04:49:07.169Z,100915.46
2018-06-19T04:51:35.349Z,100914.47
2018-06-19T04:54:03.526Z,100909.33
2018-06-19T04:56:31.711Z,100910.20
2018-06-19T04:59:00.230Z,100905.58
2018-06-19T05:01:28.403Z,100909.33
2018-06-19T05:03:56.588Z,100913.75
2018-06-19T05:06:24.807Z,100911.58
2018-06-19T05:08:52.978Z,100912.98
2018-06-19T05:11:21.176Z,100910.06
2018-06-19T05:13:49.348Z,100915.05
2018-06-19T05:16:17.554Z,100913.95
2018-06-19T05:18:45.719Z,100917.03
2018-06-19T05:21:13.927Z,100921.45
2018-06-19T05:23:42.227Z,100921.71
2018-06-19T05:26:10.418Z,100915.00
2018-06-19T05:28:38.614Z,100911.02
2018-06-19T05:31:06.855Z,100910.53
2018-06-19T05:33:35.167Z,100910.08
2018-06-19T05:36:03.362Z,100911.80
2018-06-19T05:38:31.651Z,100911.80
2018-06-19T05:40:59.818Z,100914.87
2018-06-19T05:43:28.003Z,100909.66
2018-06-19T05:45:56.199Z,100909.80
2018-06-19T05:48:24.375Z,100915.82
2018-06-19T05:50:52.735Z,100912.06
2018-06-19T05:53:20.899Z,100920.29
2018-06-19T05:55:49.071Z,100928.39
2018-06-19T05:58:17.267Z,100922.97
2018-06-19T06:00:45.447Z,100921.36
2018-06-19T06:03:13.694Z,100930.45
2018-06-19T06:05:41.958Z,100929.73
2018-06-19T06:08:10.114Z,100934.07
2018-06-19T06:10:38.593Z,100933.78
2018-06-19T06:13:06.714Z,100927.61
2018-06-19T06:15:34.931Z,100927.95
2018-06-19T06:18:03.127Z,100928.30
2018-06-19T06:20:31.306Z,100936.53
2018-06-19T06:22:59.472Z,100934.63
2018-06-19T06:25:27.655Z,100927.86
2018-06-19T06:27:55.824Z,100931.96
2018-06-19T06:30:23.983Z,100935.59
2018-06-19T06:32:52.150Z,100940.66
2018-06-19T06:35:20.298Z,100943.64
2018-06-19T06:37:48.466Z,100941.13
2018-06-19T06:40:16.631Z,100944.78
2018-06-19T06:42:44.790Z,100947.48
2018-06-19T06:45:12.967Z,100956.86
2018-06-19T06:47:41.122Z,100952.37
2018-06-19T06:50:09.310Z,100950.52
2018-06-19T06:52:37.460Z,100949.45
2018-06-19T06:55:05.649Z,100955.36
2018-06-19T06:57:33.831Z,100953.16
2018-06-19T07:00:01.994Z,100951.64
2018-06-19T07:02:30.159Z,100954.98
2018-06-19T07:04:58.323Z,100953.28
2018-06-19T07:07:26.481Z,100955.98
2018-06-19T07:09:55.065Z,100954.17
2018-06-19T07:12:23.223Z,100951.20
2018-06-19T07:14:51.387Z,100952.94
2018-06-19T07:17:19.552Z,100960.31
2018-06-19T07:19:47.706Z,100962.58
2018-06-19T07:22:15.877Z,100962.08
2018-06-19T07:24:44.034Z,100966.74
2018-06-19T07:27:12.222Z,100973.09
2018-06-19T07:29:40.387Z,100972.80
2018-06-19T07:32:08.596Z,100966.06
2018-06-19T07:34:36.718Z,100978.04
2018-06-19T07:37:04.895Z,100973.94
2018-06-19T07:39:33.066Z,100977.75
2018-06-19T07:42:01.217Z,100974.22
2018-06-19T07:44:29.378Z,100980.09
2018-06-19T07:46:57.546Z,100983.06
2018-06-19T07:49:25.732Z,100984.09
2018-06-19T07:51:54.086Z,100987.59
2018-06-19T07:54:22.252Z,100986.28
2018-06-19T07:56:50.402Z,100983.98
2018-06-19T07:59:18.566Z,100993.21
2018-06-19T08:01:46.970Z,100996.20
2018-06-19T08:04:15.465Z,100994.89
2018-06-19T08:06:43.625Z,100998.91
2018-06-19T08:09:12.310Z,100995.11
2018-06-19T08:11:40.534Z,100997.14
2018-06-19T08:14:08.690Z,101000.47
2018-06-19T08:16:36.862Z,100999.64
2018-06-19T08:19:05.042Z,100999.34
2018-06-19T08:21:33.211Z,101000.20
2018-06-19T08:24:01.375Z,100999.73
2018-06-19T08:26:29.524Z,101004.14
2018-06-19T08:28:57.699Z,101008.30
2018-06-19T08:31:25.870Z,101004.24
2018-06-19T08:33:54.202Z,101004.74
2018-06-19T08:36:22.404Z,101006.27
2018-06-19T08:38:50.522Z,101010.50
2018-06-19T08:41:18.710Z,101010.43
2018-06-19T08:43:46.891Z,101009.50
2018-06-19T08:46:15.051Z,101009.90
2018-06-19T08:48:43.218Z,101013.88
2018-06-19T08:51:11.482Z,101022.91
2018-06-19T08:53:39.683Z,101023.32
2018-06-19T08:56:07.861Z,101021.14
2018-06-19T08:58:36.126Z,101023.03
2018-06-19T09:01:04.312Z,101024.98
2018-06-19T09:03:32.546Z,101018.05
2018-06-19T09:06:00.759Z,101017.55
2018-06-19T09:08:28.948Z,101020.08
2018-06-19T09:10:57.159Z,101024.69
2018-06-19T09:13:25.397Z,101026.47
2018-06-19T09:15:53.505Z,101025.77
2018-06-19T09:18:21.711Z,101028.37
2018-06-19T09:20:49.890Z,101031.53
2018-06-19T09:23:18.063Z,101036.73
2018-06-19T09:25:46.240Z,101036.30
2018-06-19T09:28:14.402Z,101034.88
2018-06-19T09:30:42.578Z,101031.16
2018-06-19T09:33:10.760Z,101031.49
2018-06-19T09:35:38.925Z,101033.87
2018-06-19T09:38:07.130Z,101034.72
2018-06-19T09:40:35.291Z,101037.63
2018-06-19T09:43:03.456Z,101035.28
2018-06-19T09:45:31.611Z,101043.11
2018-06-19T09:47:59.771Z,101038.70
2018-06-19T09:50:27.956Z,101043.20
2018-06-19T09:52:56.143Z,101040.21
2018-06-19T09:55:24.314Z,101039.66
2018-06-19T09:57:52.475Z,101041.02
2018-06-19T10:00:25.854Z,101045.84
2018-06-19T10:02:54.056Z,101049.45
2018-06-19T10:05:22.219Z,101046.03
2018-06-19T10:07:50.403Z,101044.63
2018-06-19T10:10:18.569Z,101043.11
2018-06-19T10:12:46.746Z,101042.49
2018-06-19T10:15:14.902Z,101042.95
2018-06-19T10:17:43.068Z,101042.27
2018-06-19T10:20:11.231Z,101039.67
2018-06-19T10:22:39.423Z,101044.58
2018-06-19T10:25:07.579Z,101047.14
2018-06-19T10:27:35.916Z,101047.77
2018-06-19T10:30:04.235Z,101043.39
2018-06-19T10:32:32.403Z,101048.53
2018-06-19T10:35:00.606Z,101052.17
2018-06-19T10:37:28.906Z,101045.16
2018-06-19T10:39:57.063Z,101047.36
2018-06-19T10:42:25.246Z,101049.23
2018-06-19T10:44:53.410Z,101049.41
2018-06-19T10:47:21.591Z,101051.75
2018-06-19T10:49:49.758Z,101049.31
2018-06-19T10:52:17.927Z,101056.47
2018-06-19T10:54:46.087Z,101057.16
2018-06-19T10:57:14.246Z,101058.47
2018-06-19T10:59:42.419Z,101060.71
2018-06-19T11:02:10.575Z,101062.17
2018-06-19T11:04:38.739Z,101062.67
2018-06-19T11:07:06.967Z,101067.77
2018-06-19T11:09:35.127Z,101067.57
2018-06-19T11:12:03.340Z,101061.34
2018-06-19T11:14:31.495Z,101067.64
2018-06-19T11:16:59.659Z,101075.53
2018-06-19T11:19:27.858Z,101068.84
2018-06-19T11:21:56.032Z,101068.04
2018-06-19T11:24:24.190Z,101069.44
2018-06-19T11:26:52.358Z,101070.02
2018-06-19T11:29:20.539Z,101073.36
2018-06-19T11:31:48.694Z,101071.58
2018-06-19T11:34:16.934Z,101070.31
2018-06-19T11:36:45.112Z,101071.59
2018-06-19T11:39:14.286Z,101070.11
2018-06-19T11:41:43.396Z,101069.97
2018-06-19T11:44:11.563Z,101069.31
2018-06-19T11:46:39.771Z,101075.33
2018-06-19T11:49:08.032Z,101075.27
2018-06-19T11:51:36.163Z,101073.08
2018-06-19T11:54:04.315Z,101072.44
2018-06-19T11:56:32.507Z,101071.02
2018-06-19T11:59:00.679Z,101073.44
2018-06-19T12:01:28.842Z,101070.16
2018-06-19T12:03:57.034Z,101076.14
2018-06-19T12:06:25.212Z,101074.85
2018-06-19T12:08:53.392Z,101066.21
2018-06-19T12:11:21.586Z,101055.73
2018-06-19T12:13:49.759Z,101063.41
2018-06-19T12:16:17.922Z,101066.75
2018-06-19T12:18:46.095Z,101061.58
2018-06-19T12:21:14.255Z,101063.19
2018-06-19T12:23:42.468Z,101063.77
2018-06-19T12:26:10.635Z,101064.37
2018-06-19T12:28:38.814Z,101064.66
2018-06-19T12:31:07.075Z,101063.02
2018-06-19T12:33:35.262Z,101063.85
2018-06-19T12:36:03.650Z,101065.22
2018-06-19T12:38:31.958Z,101067.95
2018-06-19T12:41:00.128Z,101068.20
2018-06-19T12:43:28.302Z,101064.67
2018-06-19T12:45:56.546Z,101056.22
2018-06-19T12:48:24.714Z,101060.22
2018-06-19T12:52:06.551Z,101060.71
2018-06-19T12:54:45.059Z,101064.72
2018-06-19T12:57:13.311Z,101068.50
2018-06-19T12:59:41.494Z,101073.10
2018-06-19T13:02:09.683Z,101068.50
2018-06-19T13:04:49.346Z,101073.69
2018-06-19T13:07:17.574Z,101075.28
2018-06-19T13:09:45.743Z,101074.26
2018-06-19T13:12:25.259Z,101075.12
2018-06-19T13:14:53.461Z,101068.95
2018-06-19T13:17:33.174Z,101073.09
2018-06-19T13:20:12.543Z,101082.32
2018-06-19T13:22:40.719Z,101080.42
2018-06-19T13:25:08.924Z,101074.17
2018-06-19T13:27:37.118Z,101069.81
2018-06-19T13:30:16.722Z,101075.73
2018-06-19T13:32:44.947Z,101068.69
2018-06-19T13:35:13.122Z,101072.48
2018-06-19T13:37:42.589Z,101073.87
2018-06-19T13:41:23.562Z,101076.33
2018-06-19T13:44:04.671Z,101067.91
2018-06-19T13:46:32.904Z,101070.34
2018-06-19T13:49:01.127Z,101071.98
2018-06-19T13:51:29.746Z,101071.72
2018-06-19T13:53:57.914Z,101072.56
2018-06-19T13:57:39.522Z,101077.16
2018-06-19T14:00:25.859Z,101076.91
2018-06-19T14:02:54.054Z,101070.09
2018-06-19T14:05:22.226Z,101072.01
2018-06-19T14:08:11.718Z,101066.23
2018-06-19T14:10:51.048Z,101070.03
2018-06-19T14:13:19.295Z,101065.06
2018-06-19T14:15:48.760Z,101068.38
2018-06-19T14:18:18.159Z,101067.28
2018-06-19T14:20:46.372Z,101066.74
2018-06-19T14:23:14.816Z,101067.28
2018-06-19T14:25:43.042Z,101061.30
2018-06-19T14:28:11.204Z,101062.90
2018-06-19T14:30:39.400Z,101059.16
2018-06-19T14:33:07.625Z,101054.84
2018-06-19T14:35:35.787Z,101050.78
2018-06-19T14:38:03.954Z,101051.89
2018-06-19T14:40:32.137Z,101055.97
2018-06-19T14:43:00.298Z,101061.67
2018-06-19T14:45:28.476Z,101060.56
2018-06-19T14:47:56.679Z,101059.44
2018-06-19T14:50:24.894Z,101055.88
2018-06-19T14:52:53.062Z,101056.97
2018-06-19T14:55:21.251Z,101055.61
2018-06-19T14:57:49.446Z,101055.02
2018-06-19T15:00:17.650Z,101058.29
2018-06-19T15:02:45.906Z,101061.05
2018-06-19T15:05:14.098Z,101054.27
2018-06-19T15:07:47.298Z,101058.66
2018-06-19T15:10:15.927Z,101057.03
2018-06-19T15:12:44.370Z,101058.14
2018-06-19T15:15:12.919Z,101055.14
2018-06-19T15:17:41.137Z,101057.31
2018-06-19T15:20:09.355Z,101061.95
2018-06-19T15:22:37.559Z,101057.04
2018-06-19T15:25:05.780Z,101057.31
2018-06-19T15:27:34.118Z,101052.12
2018-06-19T15:30:02.705Z,101054.88
2018-06-19T15:32:30.919Z,101049.42
2018-06-19T15:34:59.158Z,101048.31
2018-06-19T15:37:27.379Z,101056.20
2018-06-19T15:39:55.578Z,101051.86
2018-06-19T15:42:23.824Z,101048.31
2018-06-19T15:44:52.011Z,101052.97
2018-06-19T15:47:20.210Z,101054.61
2018-06-19T15:49:48.442Z,101052.16
2018-06-19T15:52:16.659Z,101049.39
2018-06-19T15:54:44.887Z,101049.14
2018-06-19T15:57:13.247Z,101047.52
2018-06-19T15:59:41.490Z,101043.45
2018-06-19T16:02:09.711Z,101039.90
2018-06-19T16:04:37.911Z,101044.25
2018-06-19T16:07:06.083Z,101041.53
2018-06-19T16:09:34.439Z,101039.05
2018-06-19T16:12:02.791Z,101043.42
2018-06-19T16:14:30.963Z,101033.64
2018-06-19T16:16:59.140Z,101037.17
2018-06-19T16:19:27.560Z,101035.52
2018-06-19T16:21:55.741Z,101040.44
2018-06-19T16:24:23.919Z,101033.61
2018-06-19T16:26:52.659Z,101031.45
2018-06-19T16:29:20.839Z,101034.42
2018-06-19T16:31:49.015Z,101033.34
2018-06-19T16:34:17.186Z,101031.98
2018-06-19T16:36:45.452Z,101032.80
2018-06-19T16:39:13.652Z,101030.36
2018-06-19T16:41:41.815Z,101033.09
2018-06-19T16:44:10.012Z,101033.09
2018-06-19T16:46:38.217Z,101030.92
2018-06-19T16:49:06.422Z,101030.37
2018-06-19T16:51:34.710Z,101032.28
2018-06-19T16:54:02.895Z,101033.37
2018-06-19T16:56:31.131Z,101024.67
2018-06-19T16:58:59.378Z,101025.48
2018-06-19T17:01:27.610Z,101022.48
2018-06-19T17:03:55.778Z,101021.39
2018-06-19T17:06:23.950Z,101024.41
2018-06-19T17:08:52.134Z,101022.75
2018-06-19T17:11:20.311Z,101017.86
2018-06-19T17:13:48.494Z,101020.84
2018-06-19T17:16:16.652Z,101019.48
2018-06-19T17:18:44.815Z,101017.57
2018-06-19T17:21:13.019Z,101021.39
2018-06-19T17:23:41.411Z,101017.30
2018-06-19T17:26:09.604Z,101020.30
2018-06-19T17:28:37.830Z,101019.47
2018-06-19T17:31:06.050Z,101015.14
2018-06-19T17:33:34.286Z,101023.03
2018-06-19T17:36:02.505Z,101023.02
2018-06-19T17:38:30.666Z,101019.50
2018-06-19T17:40:58.994Z,101017.86
2018-06-19T17:43:27.141Z,101010.80
2018-06-19T17:45:55.359Z,101016.52
2018-06-19T17:48:23.530Z,101006.72
2018-06-19T17:50:51.735Z,100999.64
2018-06-19T17:53:20.182Z,101005.91
2018-06-19T17:55:48.436Z,101005.08
2018-06-19T17:58:16.632Z,101010.81
2018-06-19T18:00:44.838Z,101006.45
2018-06-19T18:03:13.048Z,101009.73
2018-06-19T18:05:41.251Z,101003.72
2018-06-19T18:08:09.451Z,100999.92
2018-06-19T18:10:37.696Z,101002.91
2018-06-19T18:13:05.882Z,101003.14
2018-06-19T18:15:34.072Z,101002.05
2018-06-19T18:18:02.254Z,101000.69
2018-06-19T18:20:30.435Z,101009.13
2018-06-19T18:22:58.670Z,101003.13
2018-06-19T18:25:26.879Z,101001.21
2018-06-19T18:27:55.091Z,101001.50
2018-06-19T18:30:23.352Z,101000.38
2018-06-19T18:32:51.568Z,100996.83
2018-06-19T18:35:19.818Z,100987.03
2018-06-19T18:37:48.027Z,100994.09
2018-06-19T18:40:16.298Z,100999.52
2018-06-19T18:42:44.519Z,100995.16
2018-06-19T18:45:12.750Z,101000.30
2018-06-19T18:47:41.026Z,100998.66
2018-06-19T18:50:10.045Z,100999.75
2018-06-19T18:52:38.243Z,101002.94
2018-06-19T18:55:06.429Z,101004.58
2018-06-19T18:57:34.779Z,101004.02
2018-06-19T19:00:03.007Z,101003.47
2018-06-19T19:02:31.255Z,101000.44
2018-06-19T19:04:59.471Z,101001.78
2018-06-19T19:07:27.797Z,100998.52
2018-06-19T19:10:01.214Z,100997.67
2018-06-19T19:12:29.427Z,100995.75
2018-06-19T19:15:02.915Z,101004.70
2018-06-19T19:17:36.579Z,101000.05
2018-06-19T19:20:04.776Z,101009.27
2018-06-19T19:22:33.250Z,100995.95
2018-06-19T19:25:01.467Z,100994.30
2018-06-19T19:27:35.095Z,101001.60
2018-06-19T19:30:03.329Z,100996.71
2018-06-19T19:32:31.527Z,100997.80
2018-06-19T19:34:59.770Z,100995.58
2018-06-19T19:37:33.271Z,100997.19
2018-06-19T19:40:01.471Z,100996.89
2018-06-19T19:42:29.863Z,101002.59
2018-06-19T19:44:58.047Z,100999.05
2018-06-19T19:47:31.378Z,100999.87
2018-06-19T19:49:59.623Z,101002.50
2018-06-19T19:52:28.687Z,101002.51
2018-06-19T19:54:56.900Z,101013.08
2018-06-19T19:57:30.376Z,101012.28
2018-06-19T19:59:58.587Z,101010.62
2018-06-19T20:02:26.800Z,101016.29
2018-06-19T20:04:54.988Z,101016.84
2018-06-19T20:07:23.179Z,101011.95
2018-06-19T20:09:51.447Z,101016.84
2018-06-19T20:12:19.618Z,101020.36
2018-06-19T20:14:47.800Z,101020.61
2018-06-19T20:17:16.368Z,101021.66
2018-06-19T20:19:44.551Z,101024.37
2018-06-19T20:22:12.744Z,101020.02
2018-06-19T20:24:40.910Z,101024.09
2018-06-19T20:27:09.123Z,101022.95
2018-06-19T20:29:37.299Z,101027.58
2018-06-19T20:32:05.483Z,101025.11
2018-06-19T20:34:33.687Z,101024.53
2018-06-19T20:37:01.855Z,101027.76
2018-06-19T20:39:30.036Z,101032.10
2018-06-19T20:41:58.213Z,101028.00
2018-06-19T20:44:26.382Z,101035.06
2018-06-19T20:46:54.682Z,101030.41
2018-06-19T20:49:22.868Z,101036.10
2018-06-19T20:51:51.031Z,101033.36
2018-06-19T20:54:19.203Z,101036.87
2018-06-19T20:56:47.423Z,101041.42
2018-06-19T20:59:15.619Z,101042.22
2018-06-19T21:01:43.841Z,101040.58
2018-06-19T21:04:12.127Z,101039.75
2018-06-19T21:06:40.348Z,101038.39
2018-06-19T21:09:08.821Z,101036.69
2018-06-19T21:11:36.997Z,101038.04
2018-06-19T21:14:05.156Z,101037.77
2018-06-19T21:16:33.360Z,101029.56
2018-06-19T21:19:01.725Z,101031.43
2018-06-19T21:21:29.900Z,101032.23
2018-06-19T21:23:58.069Z,101031.95
2018-06-19T21:26:26.472Z,101036.29
2018-06-19T21:28:54.634Z,101034.66
2018-06-19T21:31:22.810Z,101032.23
2018-06-19T21:33:51.012Z,101034.11
2018-06-19T21:36:19.202Z,101033.23
2018-06-19T21:38:47.374Z,101034.38
2018-06-19T21:41:15.554Z,101030.20
2018-06-19T21:43:43.743Z,101032.12
2018-06-19T21:46:11.887Z,101025.34
2018-06-19T21:48:40.087Z,101028.57
2018-06-19T21:51:08.276Z,101022.88
2018-06-19T21:53:36.472Z,101026.10
2018-06-19T21:56:04.683Z,101024.43
2018-06-19T21:58:32.887Z,101022.79
2018-06-19T22:01:01.080Z,101022.51
2018-06-19T22:03:29.264Z,101021.67
2018-06-19T22:05:57.435Z,101019.80
2018-06-19T22:08:56.314Z,101019.48
2018-06-19T22:11:25.138Z,101016.77
2018-06-19T22:13:53.943Z,101019.16
2018-06-19T22:16:22.159Z,101011.08
2018-06-19T22:18:50.707Z,101013.78
2018-06-19T22:21:18.899Z,101013.42
2018-06-19T22:23:47.079Z,101015.33
2018-06-19T22:26:15.263Z,101019.31
2018-06-19T22:28:43.477Z,101015.30
2018-06-19T22:31:11.651Z,101008.80
2018-06-19T22:33:39.827Z,101012.03
2018-06-19T22:36:08.035Z,101014.77
2018-06-19T22:38:36.278Z,101018.05
2018-06-19T22:41:04.403Z,101021.88
2018-06-19T22:43:32.555Z,101011.28
2018-06-19T22:46:00.739Z,101016.70
2018-06-19T22:48:28.925Z,101018.88
2018-06-19T22:50:57.121Z,101017.77
2018-06-19T22:53:25.307Z,101013.98
2018-06-19T22:55:53.467Z,101016.13
2018-06-19T22:58:21.685Z,101016.65
2018-06-19T23:00:49.850Z,101012.59
2018-06-19T23:03:18.020Z,101016.93
2018-06-19T23:05:46.182Z,101017.72
2018-06-19T23:08:14.377Z,101017.13
2018-06-19T23:10:42.535Z,101015.77
2018-06-19T23:13:10.696Z,101015.20
2018-06-19T23:15:38.848Z,101011.98
2018-06-19T23:18:07.012Z,101017.13
2018-06-19T23:20:35.166Z,101010.91
2018-06-19T23:23:03.364Z,101012.50
2018-06-19T23:25:31.515Z,101010.83
2018-06-19T23:27:59.695Z,101008.43
2018-06-19T23:30:27.853Z,101009.78
2018-06-19T23:32:56.024Z,101005.69
2018-06-19T23:35:24.200Z,101015.72
2018-06-19T23:37:52.372Z,101008.12
2018-06-19T23:40:20.545Z,101011.34
2018-06-19T23:42:48.774Z,101010.81
2018-06-19T23:45:16.946Z,101011.05
2018-06-19T23:47:45.119Z,101007.51
2018-06-19T23:50:13.290Z,101007.79
2018-06-19T23:52:41.454Z,101001.02
2018-06-19T23:55:09.654Z,100996.16
2018-06-19T23:57:37.838Z,100993.97
